sensor_id;sensor_type;location;lat;lon;timestamp;pressure;altitude;pressure_sealevel;temperature;humidity
14067;BME280;7108;42.684;23.350;2023-06-22T00:02:04;95758.47;;;20.19;100.00
14067;BME280;7108;42.684;23.350;2023-06-22T00:04:30;95752.63;;;20.14;100.00
14067;BME280;7108;42.684;23.350;2023-06-22T00:06:55;95774.88;;;20.19;100.00
14067;BME280;7108;42.684;23.350;2023-06-22T00:09:20;95770.94;;;20.20;100.00
14067;BME280;7108;42.684;23.350;2023-06-22T00:11:46;95765.91;;;20.15;100.00
14067;BME280;7108;42.684;23.350;2023-06-22T00:14:11;95763.97;;;20.16;100.00
14067;BME280;7108;42.684;23.350;2023-06-22T00:16:37;95764.03;;;20.09;100.00
14067;BME280;7108;42.684;23.350;2023-06-22T00:19:02;95750.09;;;19.93;100.00
14067;BME280;7108;42.684;23.350;2023-06-22T00:21:29;95745.81;;;19.88;100.00
14067;BME280;7108;42.684;23.350;2023-06-22T00:23:54;95753.19;;;19.91;100.00
14067;BME280;7108;42.684;23.350;2023-06-22T00:26:20;95761.03;;;19.93;100.00
14067;BME280;7108;42.684;23.350;2023-06-22T00:28:46;95737.63;;;19.85;100.00
14067;BME280;7108;42.684;23.350;2023-06-22T00:31:12;95746.16;;;19.90;100.00
14067;BME280;7108;42.684;23.350;2023-06-22T00:33:37;95740.72;;;19.94;100.00
14067;BME280;7108;42.684;23.350;2023-06-22T00:36:03;95740.34;;;19.88;100.00
14067;BME280;7108;42.684;23.350;2023-06-22T00:38:28;95741.53;;;19.84;100.00
14067;BME280;7108;42.684;23.350;2023-06-22T00:40:54;95737.66;;;19.81;100.00
14067;BME280;7108;42.684;23.350;2023-06-22T00:43:20;95749.75;;;19.84;100.00
14067;BME280;7108;42.684;23.350;2023-06-22T00:45:45;95743.91;;;19.78;100.00
14067;BME280;7108;42.684;23.350;2023-06-22T00:48:12;95748.66;;;19.71;100.00
14067;BME280;7108;42.684;23.350;2023-06-22T00:50:37;95740.88;;;19.70;100.00
14067;BME280;7108;42.684;23.350;2023-06-22T00:53:05;95740.53;;;19.68;100.00
14067;BME280;7108;42.684;23.350;2023-06-22T00:55:37;95748.28;;;19.73;100.00
14067;BME280;7108;42.684;23.350;2023-06-22T00:58:05;95753.38;;;19.71;100.00
14067;BME280;7108;42.684;23.350;2023-06-22T01:00:33;95747.94;;;19.67;100.00
14067;BME280;7108;42.684;23.350;2023-06-22T01:02:59;95755.72;;;19.69;100.00
14067;BME280;7108;42.684;23.350;2023-06-22T01:05:24;95758.50;;;19.65;100.00
14067;BME280;7108;42.684;23.350;2023-06-22T01:13:10;95746.88;;;19.51;100.00
14067;BME280;7108;42.684;23.350;2023-06-22T01:15:40;95743.41;;;19.47;100.00
14067;BME280;7108;42.684;23.350;2023-06-22T01:18:09;95762.06;;;19.55;100.00
14067;BME280;7108;42.684;23.350;2023-06-22T01:20:36;95774.16;;;19.58;100.00
14067;BME280;7108;42.684;23.350;2023-06-22T01:23:26;95775.72;;;19.59;100.00
14067;BME280;7108;42.684;23.350;2023-06-22T01:25:57;95770.66;;;19.57;100.00
14067;BME280;7108;42.684;23.350;2023-06-22T01:28:48;95766.78;;;19.55;100.00
14067;BME280;7108;42.684;23.350;2023-06-22T01:31:17;95771.09;;;19.52;100.00
14067;BME280;7108;42.684;23.350;2023-06-22T01:33:47;95768.75;;;19.54;100.00
14067;BME280;7108;42.684;23.350;2023-06-22T01:36:14;95769.94;;;19.50;100.00
14067;BME280;7108;42.684;23.350;2023-06-22T01:38:40;95771.06;;;19.56;100.00
14067;BME280;7108;42.684;23.350;2023-06-22T01:41:07;95774.59;;;19.53;100.00
14067;BME280;7108;42.684;23.350;2023-06-22T01:43:33;95773.81;;;19.52;100.00
14067;BME280;7108;42.684;23.350;2023-06-22T01:46:01;95764.13;;;19.41;100.00
14067;BME280;7108;42.684;23.350;2023-06-22T01:48:27;95787.91;;;19.51;100.00
14067;BME280;7108;42.684;23.350;2023-06-22T01:50:53;95769.19;;;19.42;100.00
14067;BME280;7108;42.684;23.350;2023-06-22T01:53:21;95772.72;;;19.39;100.00
14067;BME280;7108;42.684;23.350;2023-06-22T01:55:47;95789.06;;;19.50;100.00
14067;BME280;7108;42.684;23.350;2023-06-22T01:58:12;95788.72;;;19.44;100.00
14067;BME280;7108;42.684;23.350;2023-06-22T02:00:40;95791.84;;;19.43;100.00
14067;BME280;7108;42.684;23.350;2023-06-22T02:03:15;95792.63;;;19.43;100.00
14067;BME280;7108;42.684;23.350;2023-06-22T02:05:49;95792.25;;;19.41;100.00
14067;BME280;7108;42.684;23.350;2023-06-22T02:08:25;95800.47;;;19.38;100.00
14067;BME280;7108;42.684;23.350;2023-06-22T02:10:53;95810.22;;;19.35;100.00
14067;BME280;7108;42.684;23.350;2023-06-22T02:13:20;95806.72;;;19.35;100.00
14067;BME280;7108;42.684;23.350;2023-06-22T02:15:47;95792.34;;;19.24;100.00
14067;BME280;7108;42.684;23.350;2023-06-22T02:18:13;95779.44;;;19.24;100.00
14067;BME280;7108;42.684;23.350;2023-06-22T02:20:39;95794.66;;;19.32;100.00
14067;BME280;7108;42.684;23.350;2023-06-22T02:23:05;95783.34;;;19.27;100.00
14067;BME280;7108;42.684;23.350;2023-06-22T02:25:32;95792.75;;;19.22;100.00
14067;BME280;7108;42.684;23.350;2023-06-22T02:27:57;95779.50;;;19.17;100.00
14067;BME280;7108;42.684;23.350;2023-06-22T02:30:23;95775.63;;;19.15;100.00
14067;BME280;7108;42.684;23.350;2023-06-22T02:32:48;95777.56;;;19.14;100.00
14067;BME280;7108;42.684;23.350;2023-06-22T02:35:14;95788.47;;;19.21;100.00
14067;BME280;7108;42.684;23.350;2023-06-22T02:37:40;95783.00;;;19.18;100.00
14067;BME280;7108;42.684;23.350;2023-06-22T02:40:10;95795.09;;;19.20;100.00
14067;BME280;7108;42.684;23.350;2023-06-22T02:42:39;95786.53;;;19.15;100.00
14067;BME280;7108;42.684;23.350;2023-06-22T02:45:05;95790.84;;;19.12;100.00
14067;BME280;7108;42.684;23.350;2023-06-22T02:47:30;95783.06;;;19.08;100.00
14067;BME280;7108;42.684;23.350;2023-06-22T02:49:56;95791.63;;;19.09;100.00
14067;BME280;7108;42.684;23.350;2023-06-22T02:52:21;95780.34;;;18.97;100.00
14067;BME280;7108;42.684;23.350;2023-06-22T02:54:47;95795.91;;;19.10;100.00
14067;BME280;7108;42.684;23.350;2023-06-22T02:57:12;95776.03;;;19.03;100.00
14067;BME280;7108;42.684;23.350;2023-06-22T02:59:42;95789.31;;;19.08;100.00
14067;BME280;7108;42.684;23.350;2023-06-22T03:02:08;95798.66;;;19.10;100.00
14067;BME280;7108;42.684;23.350;2023-06-22T03:04:34;95800.56;;;19.13;100.00
14067;BME280;7108;42.684;23.350;2023-06-22T03:07:00;95797.09;;;19.13;100.00
14067;BME280;7108;42.684;23.350;2023-06-22T03:09:27;95798.25;;;19.15;100.00
14067;BME280;7108;42.684;23.350;2023-06-22T03:11:55;95803.34;;;19.10;100.00
14067;BME280;7108;42.684;23.350;2023-06-22T03:14:21;95815.06;;;19.07;100.00
14067;BME280;7108;42.684;23.350;2023-06-22T03:16:47;95818.94;;;19.06;100.00
14067;BME280;7108;42.684;23.350;2023-06-22T03:19:12;95811.53;;;19.07;100.00
14067;BME280;7108;42.684;23.350;2023-06-22T03:21:38;95822.84;;;19.12;100.00
14067;BME280;7108;42.684;23.350;2023-06-22T03:24:05;95825.97;;;19.14;100.00
14067;BME280;7108;42.684;23.350;2023-06-22T03:26:30;95818.94;;;19.09;100.00
14067;BME280;7108;42.684;23.350;2023-06-22T03:28:56;95832.97;;;19.18;100.00
14067;BME280;7108;42.684;23.350;2023-06-22T03:31:22;95816.59;;;19.11;100.00
14067;BME280;7108;42.684;23.350;2023-06-22T03:33:48;95829.84;;;19.23;100.00
14067;BME280;7108;42.684;23.350;2023-06-22T03:36:15;95834.50;;;19.23;100.00
14067;BME280;7108;42.684;23.350;2023-06-22T03:38:47;95831.00;;;19.22;100.00
14067;BME280;7108;42.684;23.350;2023-06-22T03:41:13;95829.06;;;19.19;100.00
14067;BME280;7108;42.684;23.350;2023-06-22T03:43:39;95820.50;;;19.14;100.00
14067;BME280;7108;42.684;23.350;2023-06-22T03:46:05;95843.44;;;19.27;100.00
14067;BME280;7108;42.684;23.350;2023-06-22T03:48:30;95835.25;;;19.27;100.00
14067;BME280;7108;42.684;23.350;2023-06-22T03:50:56;95838.00;;;19.27;100.00
14067;BME280;7108;42.684;23.350;2023-06-22T03:53:21;95850.81;;;19.37;100.00
14067;BME280;7108;42.684;23.350;2023-06-22T03:55:51;95859.81;;;19.41;100.00
14067;BME280;7108;42.684;23.350;2023-06-22T03:58:18;95850.47;;;19.28;100.00
14067;BME280;7108;42.684;23.350;2023-06-22T04:00:46;95833.34;;;19.24;100.00
14067;BME280;7108;42.684;23.350;2023-06-22T04:03:13;95838.38;;;19.29;100.00
14067;BME280;7108;42.684;23.350;2023-06-22T04:05:39;95845.34;;;19.37;100.00
14067;BME280;7108;42.684;23.350;2023-06-22T04:08:05;95852.03;;;19.36;100.00
14067;BME280;7108;42.684;23.350;2023-06-22T04:10:31;95853.53;;;19.44;100.00
14067;BME280;7108;42.684;23.350;2023-06-22T04:12:56;95847.66;;;19.49;100.00
14067;BME280;7108;42.684;23.350;2023-06-22T04:15:23;95843.75;;;19.46;100.00
14067;BME280;7108;42.684;23.350;2023-06-22T04:17:48;95829.72;;;19.44;100.00
14067;BME280;7108;42.684;23.350;2023-06-22T04:20:14;95831.25;;;19.45;100.00
14067;BME280;7108;42.684;23.350;2023-06-22T04:22:39;95831.63;;;19.54;100.00
14067;BME280;7108;42.684;23.350;2023-06-22T04:25:06;95819.88;;;19.54;100.00
14067;BME280;7108;42.684;23.350;2023-06-22T04:27:33;95804.69;;;19.49;100.00
14067;BME280;7108;42.684;23.350;2023-06-22T04:30:06;95819.47;;;19.59;100.00
14067;BME280;7108;42.684;23.350;2023-06-22T04:32:32;95803.06;;;19.59;100.00
14067;BME280;7108;42.684;23.350;2023-06-22T04:34:57;95802.66;;;19.60;100.00
14067;BME280;7108;42.684;23.350;2023-06-22T04:37:23;95823.72;;;19.67;100.00
14067;BME280;7108;42.684;23.350;2023-06-22T04:39:49;95829.56;;;19.69;100.00
14067;BME280;7108;42.684;23.350;2023-06-22T04:42:15;95827.19;;;19.74;100.00
14067;BME280;7108;42.684;23.350;2023-06-22T04:44:41;95818.59;;;19.72;100.00
14067;BME280;7108;42.684;23.350;2023-06-22T04:47:07;95813.94;;;19.69;100.00
14067;BME280;7108;42.684;23.350;2023-06-22T04:49:36;95816.97;;;19.81;100.00
14067;BME280;7108;42.684;23.350;2023-06-22T04:52:12;95816.16;;;19.84;100.00
14067;BME280;7108;42.684;23.350;2023-06-22T04:54:39;95831.72;;;19.98;100.00
14067;BME280;7108;42.684;23.350;2023-06-22T04:57:12;95844.63;;;20.01;100.00
14067;BME280;7108;42.684;23.350;2023-06-22T04:59:38;95842.22;;;20.06;100.00
14067;BME280;7108;42.684;23.350;2023-06-22T05:02:07;95839.91;;;20.01;100.00
14067;BME280;7108;42.684;23.350;2023-06-22T05:04:34;95844.13;;;20.09;100.00
14067;BME280;7108;42.684;23.350;2023-06-22T05:07:01;95847.63;;;20.17;100.00
14067;BME280;7108;42.684;23.350;2023-06-22T05:09:28;95835.47;;;20.18;100.00
14067;BME280;7108;42.684;23.350;2023-06-22T05:11:53;95818.34;;;20.07;100.00
14067;BME280;7108;42.684;23.350;2023-06-22T05:14:19;95810.25;;;19.96;100.00
14067;BME280;7108;42.684;23.350;2023-06-22T05:16:45;95820.44;;;19.92;100.00
14067;BME280;7108;42.684;23.350;2023-06-22T05:19:11;95829.00;;;19.98;100.00
14067;BME280;7108;42.684;23.350;2023-06-22T05:21:37;95837.09;;;20.12;100.00
14067;BME280;7108;42.684;23.350;2023-06-22T05:24:03;95823.00;;;20.17;100.00
14067;BME280;7108;42.684;23.350;2023-06-22T05:26:30;95826.38;;;20.31;100.00
14067;BME280;7108;42.684;23.350;2023-06-22T05:28:56;95836.50;;;20.38;100.00
14067;BME280;7108;42.684;23.350;2023-06-22T05:31:22;95824.81;;;20.30;100.00
14067;BME280;7108;42.684;23.350;2023-06-22T05:33:50;95832.25;;;20.30;100.00
14067;BME280;7108;42.684;23.350;2023-06-22T05:36:16;95832.94;;;20.41;100.00
14067;BME280;7108;42.684;23.350;2023-06-22T05:38:42;95837.66;;;20.40;100.00
14067;BME280;7108;42.684;23.350;2023-06-22T05:41:08;95847.63;;;20.57;100.00
14067;BME280;7108;42.684;23.350;2023-06-22T05:43:34;95842.50;;;20.62;100.00
14067;BME280;7108;42.684;23.350;2023-06-22T05:46:00;95853.91;;;20.57;100.00
14067;BME280;7108;42.684;23.350;2023-06-22T05:48:26;95857.78;;;20.60;100.00
14067;BME280;7108;42.684;23.350;2023-06-22T05:50:52;95842.88;;;20.64;100.00
14067;BME280;7108;42.684;23.350;2023-06-22T05:53:18;95839.31;;;20.67;100.00
14067;BME280;7108;42.684;23.350;2023-06-22T05:55:43;95842.03;;;20.71;100.00
14067;BME280;7108;42.684;23.350;2023-06-22T05:58:09;95838.88;;;20.72;100.00
14067;BME280;7108;42.684;23.350;2023-06-22T06:00:35;95841.16;;;20.84;100.00
14067;BME280;7108;42.684;23.350;2023-06-22T06:03:01;95849.75;;;20.83;100.00
14067;BME280;7108;42.684;23.350;2023-06-22T06:05:33;95835.69;;;20.81;100.00
14067;BME280;7108;42.684;23.350;2023-06-22T06:08:03;95837.84;;;20.96;100.00
14067;BME280;7108;42.684;23.350;2023-06-22T06:10:30;95830.38;;;21.00;100.00
14067;BME280;7108;42.684;23.350;2023-06-22T06:12:58;95825.19;;;21.09;100.00
14067;BME280;7108;42.684;23.350;2023-06-22T06:15:24;95806.91;;;20.99;100.00
14067;BME280;7108;42.684;23.350;2023-06-22T06:17:51;95825.06;;;21.19;100.00
14067;BME280;7108;42.684;23.350;2023-06-22T06:20:22;95816.06;;;21.19;100.00
14067;BME280;7108;42.684;23.350;2023-06-22T06:22:48;95818.34;;;21.24;100.00
14067;BME280;7108;42.684;23.350;2023-06-22T06:25:14;95826.53;;;21.27;100.00
14067;BME280;7108;42.684;23.350;2023-06-22T06:27:46;95826.50;;;21.31;100.00
14067;BME280;7108;42.684;23.350;2023-06-22T06:30:12;95821.72;;;21.35;100.00
14067;BME280;7108;42.684;23.350;2023-06-22T06:32:38;95813.50;;;21.35;100.00
14067;BME280;7108;42.684;23.350;2023-06-22T06:35:06;95815.28;;;21.52;100.00
14067;BME280;7108;42.684;23.350;2023-06-22T06:37:32;95816.66;;;21.63;100.00
14067;BME280;7108;42.684;23.350;2023-06-22T06:39:58;95800.63;;;21.62;100.00
14067;BME280;7108;42.684;23.350;2023-06-22T06:42:23;95807.00;;;21.81;100.00
14067;BME280;7108;42.684;23.350;2023-06-22T06:44:49;95806.09;;;21.88;100.00
14067;BME280;7108;42.684;23.350;2023-06-22T06:47:15;95801.28;;;21.95;100.00
14067;BME280;7108;42.684;23.350;2023-06-22T06:49:42;95801.47;;;22.08;100.00
14067;BME280;7108;42.684;23.350;2023-06-22T06:52:08;95801.47;;;22.08;100.00
14067;BME280;7108;42.684;23.350;2023-06-22T06:54:33;95799.31;;;22.19;100.00
14067;BME280;7108;42.684;23.350;2023-06-22T06:56:58;95784.53;;;22.13;100.00
14067;BME280;7108;42.684;23.350;2023-06-22T06:59:24;95791.47;;;22.21;100.00
14067;BME280;7108;42.684;23.350;2023-06-22T07:01:49;95796.84;;;22.28;100.00
14067;BME280;7108;42.684;23.350;2023-06-22T07:04:14;95794.84;;;22.32;100.00
14067;BME280;7108;42.684;23.350;2023-06-22T07:06:40;95792.00;;;22.35;100.00
14067;BME280;7108;42.684;23.350;2023-06-22T07:09:05;95782.63;;;22.33;100.00
14067;BME280;7108;42.684;23.350;2023-06-22T07:11:31;95801.22;;;22.48;100.00
14067;BME280;7108;42.684;23.350;2023-06-22T07:13:56;95788.38;;;22.42;100.00
14067;BME280;7108;42.684;23.350;2023-06-22T07:16:22;95790.91;;;22.52;100.00
14067;BME280;7108;42.684;23.350;2023-06-22T07:18:48;95802.56;;;22.59;100.00
14067;BME280;7108;42.684;23.350;2023-06-22T07:21:13;95807.94;;;22.66;100.00
14067;BME280;7108;42.684;23.350;2023-06-22T07:23:38;95798.34;;;22.74;100.00
14067;BME280;7108;42.684;23.350;2023-06-22T07:26:04;95799.41;;;22.80;100.00
14067;BME280;7108;42.684;23.350;2023-06-22T07:28:31;95782.09;;;22.83;100.00
14067;BME280;7108;42.684;23.350;2023-06-22T07:31:02;95783.22;;;22.86;100.00
14067;BME280;7108;42.684;23.350;2023-06-22T07:33:28;95768.69;;;22.85;100.00
14067;BME280;7108;42.684;23.350;2023-06-22T07:35:53;95777.50;;;22.96;100.00
14067;BME280;7108;42.684;23.350;2023-06-22T07:38:19;95791.72;;;23.14;100.00
14067;BME280;7108;42.684;23.350;2023-06-22T07:40:45;95804.59;;;23.17;100.00
14067;BME280;7108;42.684;23.350;2023-06-22T07:43:10;95794.31;;;23.21;100.00
14067;BME280;7108;42.684;23.350;2023-06-22T07:45:37;95800.72;;;23.34;100.00
14067;BME280;7108;42.684;23.350;2023-06-22T07:48:05;95781.41;;;23.37;100.00
14067;BME280;7108;42.684;23.350;2023-06-22T07:50:30;95800.69;;;23.53;100.00
14067;BME280;7108;42.684;23.350;2023-06-22T07:52:56;95781.50;;;23.50;100.00
14067;BME280;7108;42.684;23.350;2023-06-22T07:55:21;95788.59;;;23.67;100.00
14067;BME280;7108;42.684;23.350;2023-06-22T07:57:49;95786.06;;;23.76;100.00
14067;BME280;7108;42.684;23.350;2023-06-22T08:00:17;95777.28;;;23.80;100.00
14067;BME280;7108;42.684;23.350;2023-06-22T08:02:45;95773.16;;;23.88;100.00
14067;BME280;7108;42.684;23.350;2023-06-22T08:05:11;95785.28;;;23.91;100.00
14067;BME280;7108;42.684;23.350;2023-06-22T08:07:37;95777.22;;;24.00;100.00
14067;BME280;7108;42.684;23.350;2023-06-22T08:10:03;95775.53;;;24.06;100.00
14067;BME280;7108;42.684;23.350;2023-06-22T08:12:29;95758.78;;;23.97;100.00
14067;BME280;7108;42.684;23.350;2023-06-22T08:14:54;95759.47;;;24.01;100.00
14067;BME280;7108;42.684;23.350;2023-06-22T08:17:20;95765.34;;;24.19;100.00
14067;BME280;7108;42.684;23.350;2023-06-22T08:19:45;95764.47;;;24.22;100.00
14067;BME280;7108;42.684;23.350;2023-06-22T08:22:10;95749.75;;;24.28;100.00
14067;BME280;7108;42.684;23.350;2023-06-22T08:24:36;95750.97;;;24.27;100.00
14067;BME280;7108;42.684;23.350;2023-06-22T08:27:01;95751.47;;;24.38;100.00
14067;BME280;7108;42.684;23.350;2023-06-22T08:29:27;95737.53;;;24.45;100.00
14067;BME280;7108;42.684;23.350;2023-06-22T08:31:52;95744.50;;;24.49;100.00
14067;BME280;7108;42.684;23.350;2023-06-22T08:34:17;95735.78;;;24.51;100.00
14067;BME280;7108;42.684;23.350;2023-06-22T08:36:47;95753.50;;;24.66;100.00
14067;BME280;7108;42.684;23.350;2023-06-22T08:39:19;95741.66;;;24.53;100.00
14067;BME280;7108;42.684;23.350;2023-06-22T08:41:45;95747.66;;;24.64;100.00
14067;BME280;7108;42.684;23.350;2023-06-22T08:44:11;95756.16;;;24.69;100.00
14067;BME280;7108;42.684;23.350;2023-06-22T08:46:36;95753.06;;;24.67;100.00
14067;BME280;7108;42.684;23.350;2023-06-22T08:49:04;95755.63;;;24.74;100.00
14067;BME280;7108;42.684;23.350;2023-06-22T08:51:29;95755.78;;;24.83;100.00
14067;BME280;7108;42.684;23.350;2023-06-22T08:53:54;95741.44;;;24.76;100.00
14067;BME280;7108;42.684;23.350;2023-06-22T08:56:20;95746.06;;;24.79;100.00
14067;BME280;7108;42.684;23.350;2023-06-22T08:58:45;95744.44;;;24.94;100.00
14067;BME280;7108;42.684;23.350;2023-06-22T09:01:11;95720.34;;;24.82;100.00
14067;BME280;7108;42.684;23.350;2023-06-22T09:03:36;95726.69;;;24.95;100.00
14067;BME280;7108;42.684;23.350;2023-06-22T09:06:03;95732.78;;;25.02;100.00
14067;BME280;7108;42.684;23.350;2023-06-22T09:08:28;95719.44;;;25.01;100.00
14067;BME280;7108;42.684;23.350;2023-06-22T09:10:54;95730.53;;;25.13;100.00
14067;BME280;7108;42.684;23.350;2023-06-22T09:13:19;95727.44;;;25.23;100.00
14067;BME280;7108;42.684;23.350;2023-06-22T09:15:44;95736.81;;;25.26;100.00
14067;BME280;7108;42.684;23.350;2023-06-22T09:18:10;95734.31;;;25.31;100.00
14067;BME280;7108;42.684;23.350;2023-06-22T09:20:36;95728.34;;;25.45;100.00
14067;BME280;7108;42.684;23.350;2023-06-22T09:23:02;95725.94;;;25.47;100.00
14067;BME280;7108;42.684;23.350;2023-06-22T09:25:27;95722.06;;;25.57;100.00
14067;BME280;7108;42.684;23.350;2023-06-22T09:27:53;95723.84;;;25.64;100.00
14067;BME280;7108;42.684;23.350;2023-06-22T09:30:18;95732.34;;;25.69;100.00
14067;BME280;7108;42.684;23.350;2023-06-22T09:32:44;95729.72;;;25.78;100.00
14067;BME280;7108;42.684;23.350;2023-06-22T09:35:09;95727.84;;;25.75;100.00
14067;BME280;7108;42.684;23.350;2023-06-22T09:37:37;95717.25;;;25.74;100.00
14067;BME280;7108;42.684;23.350;2023-06-22T09:40:03;95723.66;;;25.83;100.00
14067;BME280;7108;42.684;23.350;2023-06-22T09:42:38;95728.94;;;26.02;100.00
14067;BME280;7108;42.684;23.350;2023-06-22T09:45:04;95719.00;;;25.92;100.00
14067;BME280;7108;42.684;23.350;2023-06-22T09:47:29;95712.47;;;25.99;100.00
14067;BME280;7108;42.684;23.350;2023-06-22T09:49:55;95721.72;;;26.17;100.00
14067;BME280;7108;42.684;23.350;2023-06-22T09:52:21;95725.22;;;26.30;100.00
14067;BME280;7108;42.684;23.350;2023-06-22T09:54:47;95721.03;;;26.38;100.00
14067;BME280;7108;42.684;23.350;2023-06-22T09:57:12;95707.75;;;26.46;100.00
14067;BME280;7108;42.684;23.350;2023-06-22T09:59:38;95716.88;;;26.55;100.00
14067;BME280;7108;42.684;23.350;2023-06-22T10:02:05;95709.03;;;26.53;100.00
14067;BME280;7108;42.684;23.350;2023-06-22T10:04:31;95694.44;;;26.53;100.00
14067;BME280;7108;42.684;23.350;2023-06-22T10:06:57;95705.63;;;26.71;100.00
14067;BME280;7108;42.684;23.350;2023-06-22T10:09:22;95705.06;;;26.76;100.00
14067;BME280;7108;42.684;23.350;2023-06-22T10:11:48;95691.31;;;26.85;100.00
14067;BME280;7108;42.684;23.350;2023-06-22T10:14:13;95696.34;;;26.99;100.00
14067;BME280;7108;42.684;23.350;2023-06-22T10:16:39;95699.53;;;27.18;100.00
14067;BME280;7108;42.684;23.350;2023-06-22T10:19:06;95696.84;;;27.27;100.00
14067;BME280;7108;42.684;23.350;2023-06-22T10:21:31;95689.47;;;27.33;100.00
14067;BME280;7108;42.684;23.350;2023-06-22T10:23:58;95695.63;;;27.59;100.00
14067;BME280;7108;42.684;23.350;2023-06-22T10:26:24;95693.94;;;27.61;100.00
14067;BME280;7108;42.684;23.350;2023-06-22T10:28:50;95702.78;;;27.47;100.00
14067;BME280;7108;42.684;23.350;2023-06-22T10:31:15;95691.50;;;27.42;100.00
14067;BME280;7108;42.684;23.350;2023-06-22T10:33:42;95678.03;;;27.53;100.00
14067;BME280;7108;42.684;23.350;2023-06-22T10:36:09;95678.25;;;27.58;100.00
14067;BME280;7108;42.684;23.350;2023-06-22T10:38:35;95704.28;;;27.70;100.00
14067;BME280;7108;42.684;23.350;2023-06-22T10:41:00;95678.75;;;27.75;100.00
14067;BME280;7108;42.684;23.350;2023-06-22T10:43:26;95681.75;;;27.89;94.06
14067;BME280;7108;42.684;23.350;2023-06-22T10:45:51;95685.72;;;27.88;88.36
14067;BME280;7108;42.684;23.350;2023-06-22T10:48:16;95681.75;;;28.07;96.58
14067;BME280;7108;42.684;23.350;2023-06-22T10:50:42;95672.84;;;28.12;100.00
14067;BME280;7108;42.684;23.350;2023-06-22T10:53:07;95659.13;;;28.08;96.91
14067;BME280;7108;42.684;23.350;2023-06-22T10:55:32;95676.16;;;28.28;100.00
14067;BME280;7108;42.684;23.350;2023-06-22T10:57:58;95670.28;;;28.26;88.33
14067;BME280;7108;42.684;23.350;2023-06-22T11:00:23;95679.06;;;28.43;100.00
14067;BME280;7108;42.684;23.350;2023-06-22T11:02:49;95667.22;;;28.51;100.00
14067;BME280;7108;42.684;23.350;2023-06-22T11:05:14;95663.22;;;28.52;99.92
14067;BME280;7108;42.684;23.350;2023-06-22T11:07:43;95663.84;;;28.65;100.00
14067;BME280;7108;42.684;23.350;2023-06-22T11:10:09;95668.94;;;28.75;100.00
14067;BME280;7108;42.684;23.350;2023-06-22T11:12:35;95653.84;;;28.76;100.00
14067;BME280;7108;42.684;23.350;2023-06-22T11:15:01;95660.44;;;28.88;100.00
14067;BME280;7108;42.684;23.350;2023-06-22T11:17:26;95657.19;;;28.98;100.00
14067;BME280;7108;42.684;23.350;2023-06-22T11:19:52;95652.56;;;28.95;91.88
14067;BME280;7108;42.684;23.350;2023-06-22T11:22:17;95641.31;;;28.99;91.07
14067;BME280;7108;42.684;23.350;2023-06-22T11:24:43;95652.38;;;29.17;100.00
14067;BME280;7108;42.684;23.350;2023-06-22T11:27:08;95650.34;;;29.17;81.13
14067;BME280;7108;42.684;23.350;2023-06-22T11:29:34;95638.50;;;29.17;84.55
14067;BME280;7108;42.684;23.350;2023-06-22T11:31:59;95643.22;;;29.25;79.09
14067;BME280;7108;42.684;23.350;2023-06-22T11:34:24;95643.53;;;29.27;80.36
14067;BME280;7108;42.684;23.350;2023-06-22T11:36:50;95644.69;;;29.12;89.82
14067;BME280;7108;42.684;23.350;2023-06-22T11:39:15;95630.84;;;28.94;95.21
14067;BME280;7108;42.684;23.350;2023-06-22T11:41:41;95634.06;;;28.74;98.94
14067;BME280;7108;42.684;23.350;2023-06-22T11:44:07;95645.66;;;28.46;94.80
14067;BME280;7108;42.684;23.350;2023-06-22T11:46:33;95647.34;;;28.44;100.00
14067;BME280;7108;42.684;23.350;2023-06-22T11:48:58;95628.72;;;28.44;92.01
14067;BME280;7108;42.684;23.350;2023-06-22T11:51:23;95630.53;;;28.56;82.03
14067;BME280;7108;42.684;23.350;2023-06-22T11:53:49;95625.00;;;28.47;82.38
14067;BME280;7108;42.684;23.350;2023-06-22T11:56:15;95621.16;;;28.53;90.13
14067;BME280;7108;42.684;23.350;2023-06-22T11:58:40;95611.91;;;28.48;96.85
14067;BME280;7108;42.684;23.350;2023-06-22T12:01:06;95609.91;;;28.39;88.73
14067;BME280;7108;42.684;23.350;2023-06-22T12:03:31;95636.53;;;28.37;89.88
14067;BME280;7108;42.684;23.350;2023-06-22T12:05:57;95635.13;;;28.05;86.52
14067;BME280;7108;42.684;23.350;2023-06-22T12:08:23;95641.88;;;28.04;89.40
14067;BME280;7108;42.684;23.350;2023-06-22T12:10:50;95622.81;;;27.97;92.69
14067;BME280;7108;42.684;23.350;2023-06-22T12:13:15;95640.94;;;27.89;100.00
14067;BME280;7108;42.684;23.350;2023-06-22T12:15:41;95639.78;;;27.60;97.28
14067;BME280;7108;42.684;23.350;2023-06-22T12:18:06;95648.09;;;27.60;100.00
14067;BME280;7108;42.684;23.350;2023-06-22T12:20:32;95647.41;;;27.47;100.00
14067;BME280;7108;42.684;23.350;2023-06-22T12:22:58;95664.06;;;27.26;100.00
14067;BME280;7108;42.684;23.350;2023-06-22T12:25:23;95657.03;;;27.04;100.00
14067;BME280;7108;42.684;23.350;2023-06-22T12:27:49;95661.47;;;26.80;100.00
14067;BME280;7108;42.684;23.350;2023-06-22T12:30:16;95657.16;;;26.57;100.00
14067;BME280;7108;42.684;23.350;2023-06-22T12:32:42;95675.66;;;26.48;100.00
14067;BME280;7108;42.684;23.350;2023-06-22T12:35:07;95680.13;;;26.33;100.00
14067;BME280;7108;42.684;23.350;2023-06-22T12:37:37;95699.25;;;26.28;100.00
14067;BME280;7108;42.684;23.350;2023-06-22T12:40:03;95701.88;;;25.97;100.00
14067;BME280;7108;42.684;23.350;2023-06-22T12:42:29;95696.78;;;25.83;100.00
14067;BME280;7108;42.684;23.350;2023-06-22T12:44:54;95685.97;;;25.64;100.00
14067;BME280;7108;42.684;23.350;2023-06-22T12:47:20;95689.72;;;25.58;100.00
14067;BME280;7108;42.684;23.350;2023-06-22T12:49:45;95699.09;;;25.48;100.00
14067;BME280;7108;42.684;23.350;2023-06-22T12:52:11;95709.59;;;25.40;100.00